Hauptseite
METAR-TAF:

METAR-TAF

Flughäfen :

Fliegerhorst Schleswig

Schleswig-Jagel, Deutschland

Breite: 54-28N, Länge: 009-31E, Höhe: 22 m

Beobachtung

Neuester Wetterbericht von vor 54 Minuten, um 12:20 UTC
Wind 18 kt aus Ost/Nordost
Temperatur 19°C
Luftfeuchtigkeit 60%
Luftdruck 1013 hPa
Sichtweite 10 km oder mehr
Leicht bewölkt in der Höhe von 3000 ft
Aufgelockert bewölkt in der Höhe von 34000 ft

METAR: ETNS 211220Z 07018KT 9999 FEW030 SCT340 19/11 Q1013 BLU+BLU+

Zeit: 15:14 (13:14 UTC)

Prognose

Neuester Wetterbericht von vor 3 Stunden und 5 Minuten, um 10:09 UTC
Gültige Prognose vom 21 um 11 UTC bis 21 um 20 UTC
Wind 18 kt aus Ost/Nordost, Böen bis zu 28 kt
Sichtweite 10 km oder mehr
Leicht bewölkt in der Höhe von 34000 ft

TAF: ETNS 211009Z 2111/2120 07018G28KT 9999 NSW FEW340

Wetterbeobachtungen und Prognosen von mehr als 4000 Flughäfen (METAR und TAF Bericht).

Die verfügbaren Stationen werden durch gelbe und rote Markierungen auf der Karte dargestellt.

Führen Sie die Maus auf sie, um den Namen der Station zu sehen.

Darauf klicken, um die Beobachtung von Wetterbeobachtungen und Prognosen zu sehen.

Um die Karte zu ändern : klicken Sie auf den grünen Tasten mit einem schwarzen Kreuz Zum Vergrößern, auf den grünen Button mit einem Gedankenstrich zu verkleinern, oder auf die grünen Pfeile für benachbarte Karten.


METAR-TAF: